Time,TemperatureF,DewpointF,PressureIn,WindDirection,WindDirectionDegrees,WindSpeedMPH,WindSpeedGustMPH,Humidity,HourlyPrecipIn,Conditions,Clouds,dailyrainin,SoftwareType,DateUTC
2013-12-13 00:22:00,46.0,-99.9,-100.00,SW,216,4.0,8.0,-999,-99.99,,,-99.99,,2013-12-13 06:22:00,
2013-12-13 00:32:00,46.0,-99.9,-100.00,SW,216,4.0,8.0,-999,-99.99,,,-99.99,,2013-12-13 06:32:00,
2013-12-13 00:43:00,46.0,-99.9,-100.00,SW,216,4.0,8.0,-999,-99.99,,,-99.99,,2013-12-13 06:43:00,
2013-12-13 01:40:00,45.0,-99.9,-100.00,SSW,195,10.0,12.0,-999,-99.99,,,-99.99,,2013-12-13 07:40:00,
2013-12-13 02:22:00,45.0,-99.9,-100.00,SSW,195,10.0,12.0,-999,-99.99,,,-99.99,,2013-12-13 08:22:00,
2013-12-13 02:32:00,45.0,-99.9,-100.00,SSW,195,10.0,12.0,-999,-99.99,,,-99.99,,2013-12-13 08:32:00,
2013-12-13 03:12:00,46.0,-99.9,-100.00,SSW,211,11.0,12.0,-999,-99.99,,,-99.99,,2013-12-13 09:12:00,
2013-12-13 05:12:00,43.0,-99.9,-100.00,WSW,239,4.0,9.0,-999,-99.99,,,-99.99,,2013-12-13 11:12:00,
2013-12-13 05:43:00,42.0,-99.9,-100.00,SSW,197,4.0,9.0,-999,-99.99,,,-99.99,,2013-12-13 11:43:00,
2013-12-13 05:53:00,42.0,-99.9,-100.00,SSW,197,4.0,9.0,-999,-99.99,,,-99.99,,2013-12-13 11:53:00,
2013-12-13 06:50:00,43.0,-99.9,-100.00,SW,222,6.0,7.0,-999,-99.99,,,-99.99,,2013-12-13 12:50:00,
2013-12-13 07:42:00,43.0,-99.9,-100.00,SW,222,6.0,7.0,-999,-99.99,,,-99.99,,2013-12-13 13:42:00,
2013-12-13 07:50:00,38.0,-99.9,-100.00,WSW,254,4.0,7.0,-999,-99.99,,,-99.99,,2013-12-13 13:50:00,
2013-12-13 08:43:00,38.0,-99.9,-100.00,WSW,254,4.0,7.0,-999,-99.99,,,-99.99,,2013-12-13 14:43:00,
2013-12-13 09:50:00,56.0,-99.9,-100.00,WSW,243,11.0,19.0,-999,-99.99,,,-99.99,,2013-12-13 15:50:00,
2013-12-13 10:43:00,56.0,-99.9,-100.00,WSW,243,11.0,19.0,-999,-99.99,,,-99.99,,2013-12-13 16:43:00,
2013-12-13 11:53:00,59.0,-99.9,-100.00,WSW,258,15.0,18.0,-999,-99.99,,,-99.99,,2013-12-13 17:53:00,
2013-12-13 13:42:00,60.0,-99.9,-100.00,WNW,282,13.0,23.0,-999,-99.99,,,-99.99,,2013-12-13 19:42:00,
2013-12-13 13:52:00,60.0,-99.9,-100.00,WNW,282,13.0,23.0,-999,-99.99,,,-99.99,,2013-12-13 19:52:00,
2013-12-13 15:11:00,58.0,-99.9,-100.00,WNW,301,1.0,28.0,-999,-99.99,,,-99.99,,2013-12-13 21:11:00,
2013-12-13 15:22:00,58.0,-99.9,-100.00,WNW,301,1.0,28.0,-999,-99.99,,,-99.99,,2013-12-13 21:22:00,
2013-12-13 16:40:00,56.0,-99.9,-100.00,West,259,18.0,26.0,-999,-99.99,,,-99.99,,2013-12-13 22:40:00,
2013-12-13 17:12:00,56.0,-99.9,-100.00,West,279,24.0,25.0,-999,-99.99,,,-99.99,,2013-12-13 23:12:00,
2013-12-13 17:22:00,56.0,-99.9,-100.00,West,259,18.0,26.0,-999,-99.99,,,-99.99,,2013-12-13 23:22:00,
2013-12-13 17:33:00,56.0,-99.9,-100.00,West,259,18.0,26.0,-999,-99.99,,,-99.99,,2013-12-13 23:33:00,
2013-12-13 18:40:00,50.0,-99.9,-100.00,West,281,7.0,12.0,-999,-99.99,,,-99.99,,2013-12-14 00:40:00,
2013-12-13 19:22:00,50.0,-99.9,-100.00,West,281,7.0,12.0,-999,-99.99,,,-99.99,,2013-12-14 01:22:00,
2013-12-13 19:32:00,50.0,-99.9,-100.00,West,281,7.0,12.0,-999,-99.99,,,-99.99,,2013-12-14 01:32:00,
2013-12-13 20:10:00,48.0,-99.9,-100.00,West,259,9.0,12.0,-999,-99.99,,,-99.99,,2013-12-14 02:10:00,
2013-12-13 20:30:00,47.0,-99.9,-100.00,SE,134,1.0,2.0,-999,-99.99,,,-99.99,,2013-12-14 02:30:00,
2013-12-13 20:52:00,48.0,-99.9,-100.00,West,259,9.0,12.0,-999,-99.99,,,-99.99,,2013-12-14 02:52:00,
2013-12-13 21:02:00,48.0,-99.9,-100.00,West,259,9.0,12.0,-999,-99.99,,,-99.99,,2013-12-14 03:02:00,
2013-12-13 21:22:00,47.0,-99.9,-100.00,SE,134,1.0,2.0,-999,-99.99,,,-99.99,,2013-12-14 03:22:00,
2013-12-13 22:30:00,41.0,-99.9,-100.00,SW,216,9.0,10.0,-999,-99.99,,,-99.99,,2013-12-14 04:30:00,
2013-12-13 23:22:00,41.0,-99.9,-100.00,SW,216,9.0,10.0,-999,-99.99,,,-99.99,,2013-12-14 05:22:00,